• Join FlightAware (Why Join?)
  • Login
  • US Flag 
11:38AM EDT


 

Airport Tracker/Info


-or-


 

Live Flight TrackerFlight Track Log ✈ AWE874 ✈ 20-Apr-2013 ✈ KRDU - KCLT

Flight Track Log - Related Links

Times and Time Zones

All times are in EDT time to prevent confusion due to time zone crossing. See the AWE874 flight status page for this flight to view local times or setup timezone preferences in your user account.

Time Position Orientation Groundspeed Altitude Reporting Facility
EDT Latitude Longitude Course Direction KTS MPH feet Rate Location/Type
07:16AM 35.8986 -78.7792 263° West 190 219 1,500  Level Washington Center
07:17AM 35.9117 -78.7619 47° Northeast 158 182 2,400 2,220 Climbing Washington Center
07:18AM 35.9583 -78.7303 29° Northeast 214 246 4,700 2,040 Climbing Washington Center
07:19AM 35.8500 -79.0332 270° West  Level FlightAware Approximate
07:19AM 36.0075 -78.7733 325° Northwest 257 296 6,400  Level Washington Center
07:20AM 35.8499 -79.1171 263° West  Level FlightAware Approximate
07:20AM 36.0111 -78.8658 273° West 256 295 10,000  Level Washington Center
07:21AM 35.8416 -79.2005 263° West  Level FlightAware Approximate
07:21AM 35.9878 -78.9575 253° West 254 292 11,500  Level Washington Center
07:22AM 35.9597 -79.0667 252° West 292 336 12,600 720 Climbing Washington Center
07:23AM 35.9244 -79.1933 251° West 343 395 13,000 120 Climbing Washington Center
07:25AM 35.8539 -79.4603 252° West 371 427 13,000  Level Atlanta Center
07:26AM 35.8208 -79.5775 251° West 371 427 13,000  Level Atlanta Center
07:27AM 35.8122 -79.6881 265° West 371 427 13,000  Level Atlanta Center
07:28AM 35.8125 -79.8136 270° West 364 419 13,000  Level Atlanta Center
07:29AM 35.8125 -79.9364 270° West 372 428 13,000  Level Atlanta Center
07:30AM 35.8128 -80.0747 270° West 371 427 13,100  Climbing Atlanta Center
07:31AM 35.8122 -80.1925 270° West 373 429 13,100  Level Atlanta Center
07:32AM 35.8103 -80.3283 269° West 375 432 13,100 -120 Level Atlanta Center
07:33AM 35.8083 -80.4053 268° West 373 429 12,900 -780 Descending Atlanta Center
07:33AM 35.7869 -80.4600 244° Southwest 363 418 12,300 -1,020 Descending Atlanta Center
07:34AM 35.7400 -80.4953 211° Southwest 373 429 11,900 -900 Descending Atlanta Center
07:34AM 35.7014 -80.5278 214° Southwest 349 402 11,400 -660 Descending Atlanta Center
07:35AM 35.6303 -80.5919 216° Southwest 368 423 11,100 -180 Descending Atlanta Center
07:36AM 35.5344 -80.6700 214° Southwest 367 422 11,100  Level Atlanta Center
07:37AM 35.4811 -80.7106 212° Southwest 367 422 11,100 -120 Level Atlanta Center
07:37AM 35.4547 -80.7319 213° Southwest 371 427 11,000 -240 Descending Atlanta Center
07:38AM 35.4036 -80.7772 216° Southwest 316 364 10,900 -540 Descending Atlanta Center
07:38AM 35.3853 -80.7908 211° Southwest 344 396 10,500 -1,620 Descending Atlanta Center
07:39AM 35.3406 -80.8308 216° Southwest 235 270 9,100 -1,800 Descending Atlanta Center
07:39AM 35.3239 -80.8392 202° Southwest 282 325 8,700 -2,400 Descending Atlanta Center
07:40AM 35.2739 -80.8383 179° South 267 307 6,900 -2,460 Descending Atlanta Center
07:41AM 35.1839 -80.8317 177° South 279 321 4,500 -1,500 Descending Atlanta Center
07:42AM 35.1089 -80.8322 180° South 269 310 3,800 -660 Descending Atlanta Center
07:43AM 35.0939 -80.8986 255° West 184 212 3,100 -780 Descending Atlanta Center
07:44AM 35.1364 -80.9325 327° Northwest 147 169 2,100 -900 Descending Atlanta Center